createdAt,value
2017-05-29T00:00:04.748Z,6.50
2017-05-29T00:02:33.783Z,7.50
2017-05-29T00:05:02.770Z,6.60
2017-05-29T00:07:32.008Z,6.50
2017-05-29T00:10:01.018Z,7.12
2017-05-29T00:12:30.014Z,6.90
2017-05-29T00:14:59.389Z,7.92
2017-05-29T00:17:28.352Z,7.84
2017-05-29T00:19:57.339Z,7.04
2017-05-29T00:22:25.815Z,6.87
2017-05-29T00:24:54.777Z,7.12
2017-05-29T00:27:23.760Z,7.52
2017-05-29T00:29:52.971Z,7.38
2017-05-29T00:32:21.208Z,7.22
2017-05-29T00:34:49.412Z,7.12
2017-05-29T00:37:18.777Z,6.46
2017-05-29T00:39:46.982Z,7.66
2017-05-29T00:42:15.187Z,7.32
2017-05-29T00:44:44.505Z,7.26
2017-05-29T00:47:13.475Z,6.74
2017-05-29T00:49:42.513Z,6.98
2017-05-29T00:52:11.927Z,8.08
2017-05-29T00:54:40.945Z,7.32
2017-05-29T00:57:09.971Z,7.17
2017-05-29T00:59:39.287Z,6.68
2017-05-29T01:02:08.294Z,8.12
2017-05-29T01:04:37.261Z,7.92
2017-05-29T01:07:06.555Z,8.53
2017-05-29T01:09:35.566Z,8.05
2017-05-29T01:12:04.555Z,7.58
2017-05-29T01:14:33.842Z,8.28
2017-05-29T01:17:02.843Z,7.58
2017-05-29T01:19:31.829Z,8.02
2017-05-29T01:22:01.041Z,7.62
2017-05-29T01:24:30.028Z,8.23
2017-05-29T01:26:58.245Z,8.18
2017-05-29T01:29:27.593Z,6.87
2017-05-29T01:31:56.576Z,7.80
2017-05-29T01:34:25.559Z,6.92
2017-05-29T01:36:54.765Z,7.70
2017-05-29T01:39:23.734Z,8.05
2017-05-29T01:41:52.706Z,8.87
2017-05-29T01:44:21.939Z,7.43
2017-05-29T01:46:50.939Z,7.32
2017-05-29T01:49:19.923Z,8.40
2017-05-29T01:51:49.223Z,8.18
2017-05-29T01:54:18.197Z,8.42
2017-05-29T01:56:46.443Z,8.48
2017-05-29T01:59:15.652Z,8.18
2017-05-29T02:01:44.622Z,8.38
2017-05-29T02:04:13.597Z,8.47
2017-05-29T02:06:42.161Z,8.23
2017-05-29T02:09:11.060Z,7.28
2017-05-29T02:11:40.063Z,8.18
2017-05-29T02:14:09.297Z,8.47
2017-05-29T02:16:38.299Z,9.40
2017-05-29T02:19:07.294Z,8.60
2017-05-29T02:21:36.499Z,9.22
2017-05-29T02:24:04.724Z,10.50
2017-05-29T02:26:33.724Z,10.80
2017-05-29T02:29:03.076Z,10.88
2017-05-29T02:31:32.081Z,12.08
2017-05-29T02:34:01.083Z,11.98
2017-05-29T02:36:30.358Z,12.95
2017-05-29T02:38:59.348Z,12.98
2017-05-29T02:41:28.329Z,13.62
2017-05-29T02:43:57.634Z,12.80
2017-05-29T02:46:26.548Z,13.27
2017-05-29T02:48:55.553Z,12.78
2017-05-29T02:51:24.765Z,11.53
2017-05-29T02:53:53.746Z,12.08
2017-05-29T02:56:22.721Z,12.45
2017-05-29T02:58:51.991Z,12.03
2017-05-29T03:01:20.983Z,10.28
2017-05-29T03:03:49.990Z,12.00
2017-05-29T03:06:19.267Z,11.47
2017-05-29T03:08:48.247Z,13.18
2017-05-29T03:11:17.137Z,11.53
2017-05-29T03:13:46.435Z,11.43
2017-05-29T03:16:15.404Z,11.50
2017-05-29T03:18:44.394Z,9.77
2017-05-29T03:21:13.580Z,9.07
2017-05-29T03:23:42.700Z,10.23
2017-05-29T03:26:11.701Z,9.37
2017-05-29T03:28:40.938Z,9.67
2017-05-29T03:31:09.943Z,8.67
2017-05-29T03:33:38.925Z,8.83
2017-05-29T03:36:08.086Z,9.80
2017-05-29T03:38:36.322Z,8.76
2017-05-29T03:41:05.308Z,9.72
2017-05-29T03:43:34.506Z,9.10
2017-05-29T03:46:03.497Z,9.30
2017-05-29T03:48:32.454Z,9.60
2017-05-29T03:51:01.714Z,8.70
2017-05-29T03:53:30.677Z,9.42
2017-05-29T03:55:59.645Z,7.98
2017-05-29T03:58:28.899Z,8.20
2017-05-29T04:00:57.882Z,8.56
2017-05-29T04:03:26.866Z,7.54
2017-05-29T04:05:56.174Z,8.02
2017-05-29T04:08:25.142Z,8.76
2017-05-29T04:10:54.144Z,8.34
2017-05-29T04:13:23.368Z,8.72
2017-05-29T04:15:52.336Z,11.18
2017-05-29T04:18:21.314Z,9.02
2017-05-29T04:20:50.528Z,9.00
2017-05-29T04:23:19.535Z,9.34
2017-05-29T04:25:48.500Z,10.72
2017-05-29T04:28:17.712Z,10.74
2017-05-29T04:30:46.685Z,11.08
2017-05-29T04:33:15.677Z,11.30
2017-05-29T04:35:44.886Z,12.90
2017-05-29T04:38:13.870Z,12.40
2017-05-29T04:40:42.856Z,12.74
2017-05-29T04:43:12.065Z,12.10
2017-05-29T04:45:41.054Z,13.66
2017-05-29T04:48:10.040Z,12.50
2017-05-29T04:50:39.242Z,12.34
2017-05-29T04:53:08.238Z,12.86
2017-05-29T04:55:37.221Z,12.32
2017-05-29T04:58:06.467Z,13.14
2017-05-29T05:00:35.426Z,13.26
2017-05-29T05:03:04.402Z,12.80
2017-05-29T05:05:33.711Z,12.82
2017-05-29T05:08:02.689Z,11.60
2017-05-29T05:10:31.656Z,11.30
2017-05-29T05:13:00.890Z,11.14
2017-05-29T05:15:29.937Z,12.12
2017-05-29T05:17:58.925Z,11.40
2017-05-29T05:20:28.131Z,12.68
2017-05-29T05:22:57.110Z,12.20
2017-05-29T05:25:25.321Z,10.86
2017-05-29T05:27:54.634Z,12.50
2017-05-29T05:30:23.617Z,10.50
2017-05-29T05:32:52.598Z,12.40
2017-05-29T05:35:21.914Z,11.92
2017-05-29T05:37:50.846Z,13.22
2017-05-29T05:40:19.868Z,13.42
2017-05-29T05:42:49.182Z,13.16
2017-05-29T05:45:18.199Z,12.18
2017-05-29T05:47:47.169Z,12.26
2017-05-29T05:50:16.470Z,12.48
2017-05-29T05:52:45.442Z,13.32
2017-05-29T05:55:14.419Z,12.92
2017-05-29T05:57:43.731Z,10.10
2017-05-29T06:00:12.720Z,12.00
2017-05-29T06:02:41.688Z,12.62
2017-05-29T06:05:10.921Z,10.28
2017-05-29T06:07:39.942Z,9.80
2017-05-29T06:10:08.917Z,10.04
2017-05-29T06:12:38.144Z,9.26
2017-05-29T06:15:07.106Z,9.22
2017-05-29T06:17:36.093Z,8.82
2017-05-29T06:20:05.386Z,7.72
2017-05-29T06:22:34.353Z,7.68
2017-05-29T06:25:03.315Z,7.22
2017-05-29T06:27:32.517Z,7.58
2017-05-29T06:30:01.466Z,6.52
2017-05-29T06:32:30.434Z,5.64
2017-05-29T06:34:59.869Z,6.10
2017-05-29T06:37:28.826Z,6.08
2017-05-29T06:39:57.825Z,6.06
2017-05-29T06:42:27.114Z,5.18
2017-05-29T06:44:56.108Z,5.00
2017-05-29T06:47:25.106Z,4.90
2017-05-29T06:49:54.343Z,5.50
2017-05-29T06:52:23.299Z,5.00
2017-05-29T06:54:52.299Z,5.30
2017-05-29T06:57:21.566Z,4.68
2017-05-29T06:59:50.548Z,4.88
2017-05-29T07:02:19.526Z,5.60
2017-05-29T07:04:48.770Z,5.32
2017-05-29T07:07:17.717Z,4.52
2017-05-29T07:09:46.691Z,4.88
2017-05-29T07:12:15.947Z,4.60
2017-05-29T07:14:44.925Z,5.04
2017-05-29T07:17:13.885Z,4.88
2017-05-29T07:19:43.238Z,4.58
2017-05-29T07:22:12.202Z,4.44
2017-05-29T07:24:41.188Z,5.02
2017-05-29T07:27:10.497Z,5.28
2017-05-29T07:29:39.520Z,4.80
2017-05-29T07:32:08.491Z,4.82
2017-05-29T07:34:37.877Z,4.30
2017-05-29T07:37:06.868Z,5.04
2017-05-29T07:39:35.852Z,4.10
2017-05-29T07:42:05.161Z,4.48
2017-05-29T07:44:34.125Z,4.48
2017-05-29T07:47:03.021Z,4.32
2017-05-29T07:49:32.267Z,4.26
2017-05-29T07:52:01.246Z,4.38
2017-05-29T07:54:30.222Z,5.20
2017-05-29T07:56:59.533Z,4.30
2017-05-29T07:59:28.424Z,4.82
2017-05-29T08:01:57.430Z,5.28
2017-05-29T08:04:26.819Z,4.26
2017-05-29T08:06:55.787Z,4.46
2017-05-29T08:09:24.802Z,4.64
2017-05-29T08:11:54.089Z,5.22
2017-05-29T08:14:23.059Z,4.64
2017-05-29T08:16:52.015Z,4.82
2017-05-29T08:19:21.210Z,4.74
2017-05-29T08:21:50.198Z,4.50
2017-05-29T08:24:19.180Z,4.94
2017-05-29T08:26:48.425Z,5.08
2017-05-29T08:29:17.394Z,4.70
2017-05-29T08:31:46.358Z,4.32
2017-05-29T08:34:15.563Z,4.34
2017-05-29T08:36:44.545Z,4.04
2017-05-29T08:39:13.593Z,4.26
2017-05-29T08:41:42.894Z,3.70
2017-05-29T08:44:11.113Z,4.62
2017-05-29T08:46:40.125Z,3.72
2017-05-29T08:49:09.495Z,4.38
2017-05-29T08:51:38.473Z,4.20
2017-05-29T08:54:07.449Z,3.38
2017-05-29T08:56:36.686Z,3.80
2017-05-29T08:59:05.674Z,3.70
2017-05-29T09:01:33.883Z,4.44
2017-05-29T09:04:03.232Z,3.78
2017-05-29T09:06:32.201Z,3.70
2017-05-29T09:09:01.173Z,3.24
2017-05-29T09:11:30.481Z,2.96
2017-05-29T09:13:59.883Z,2.90
2017-05-29T09:16:28.900Z,2.90
2017-05-29T09:18:58.130Z,3.48
2017-05-29T09:21:27.129Z,3.10
2017-05-29T09:23:56.092Z,3.30
2017-05-29T09:26:25.355Z,3.16
2017-05-29T09:28:54.340Z,2.72
2017-05-29T09:31:23.236Z,4.06
2017-05-29T09:33:52.561Z,3.30
2017-05-29T09:36:21.535Z,3.58
2017-05-29T09:38:50.512Z,4.34
2017-05-29T09:41:19.729Z,3.76
2017-05-29T09:43:48.667Z,3.88
2017-05-29T09:46:17.659Z,3.08
2017-05-29T09:48:46.886Z,3.50
2017-05-29T09:51:15.875Z,3.46
2017-05-29T09:53:44.758Z,2.38
2017-05-29T09:56:14.189Z,3.10
2017-05-29T09:58:43.173Z,3.10
2017-05-29T10:01:12.190Z,2.72
2017-05-29T10:03:41.426Z,3.30
2017-05-29T10:06:10.386Z,2.84
2017-05-29T10:08:39.960Z,3.46
2017-05-29T10:11:09.168Z,3.40
2017-05-29T10:13:38.138Z,2.44
2017-05-29T10:16:07.180Z,2.60
2017-05-29T10:18:36.433Z,2.48
2017-05-29T10:21:05.349Z,2.54
2017-05-29T10:23:34.311Z,2.16
2017-05-29T10:26:03.519Z,2.82
2017-05-29T10:28:32.497Z,2.28
2017-05-29T10:31:01.458Z,2.36
2017-05-29T10:33:30.710Z,2.50
2017-05-29T10:35:59.723Z,2.26
2017-05-29T10:38:28.684Z,2.10
2017-05-29T10:40:58.088Z,2.50
2017-05-29T10:43:27.048Z,1.96
2017-05-29T10:45:56.019Z,1.90
2017-05-29T10:48:25.350Z,2.76
2017-05-29T10:50:54.338Z,3.10
2017-05-29T10:53:23.343Z,2.16
2017-05-29T10:55:53.138Z,2.50
2017-05-29T10:58:22.128Z,2.16
2017-05-29T11:00:51.119Z,2.02
2017-05-29T11:03:20.415Z,2.42
2017-05-29T11:05:49.396Z,2.56
2017-05-29T11:08:18.369Z,3.50
2017-05-29T11:10:47.601Z,3.30
2017-05-29T11:13:16.622Z,3.52
2017-05-29T11:15:45.585Z,3.68
2017-05-29T11:18:14.894Z,3.80
2017-05-29T11:20:43.853Z,3.40
2017-05-29T11:23:12.819Z,2.56
2017-05-29T11:25:42.149Z,3.58
2017-05-29T11:28:11.120Z,3.62
2017-05-29T11:30:40.087Z,3.50
2017-05-29T11:33:09.334Z,3.22
2017-05-29T11:35:38.205Z,3.22
2017-05-29T11:38:09.258Z,3.10
2017-05-29T11:40:38.221Z,3.26
2017-05-29T11:43:07.177Z,2.78
2017-05-29T11:45:36.466Z,2.90
2017-05-29T11:48:05.448Z,2.48
2017-05-29T11:50:34.414Z,2.18
2017-05-29T11:53:03.625Z,2.00
2017-05-29T11:55:32.586Z,1.90
2017-05-29T11:58:01.565Z,2.34
2017-05-29T12:00:30.832Z,2.20
2017-05-29T12:02:59.805Z,2.18
2017-05-29T12:05:28.767Z,1.86
2017-05-29T12:07:58.085Z,1.74
2017-05-29T12:10:27.041Z,1.84
2017-05-29T12:12:56.017Z,2.20
2017-05-29T12:15:25.204Z,2.00
2017-05-29T12:17:54.267Z,1.80
2017-05-29T12:20:23.239Z,1.98
2017-05-29T12:22:52.536Z,1.88
2017-05-29T12:25:21.503Z,1.74
2017-05-29T12:27:50.485Z,1.80
2017-05-29T12:30:20.865Z,1.68
2017-05-29T12:32:49.819Z,1.58
2017-05-29T12:35:18.809Z,1.28
2017-05-29T12:37:48.120Z,1.58
2017-05-29T12:40:17.069Z,1.40
2017-05-29T12:42:46.059Z,1.60
2017-05-29T12:45:15.267Z,1.40
2017-05-29T12:47:44.236Z,1.38
2017-05-29T12:50:13.227Z,1.36
2017-05-29T12:52:42.485Z,1.10
2017-05-29T12:55:11.454Z,1.44
2017-05-29T12:57:40.414Z,1.38
2017-05-29T13:00:09.567Z,1.64
2017-05-29T13:02:38.580Z,1.50
2017-05-29T13:05:07.547Z,1.52
2017-05-29T13:07:36.856Z,1.30
2017-05-29T13:10:05.816Z,1.32
2017-05-29T13:12:34.771Z,1.24
2017-05-29T13:15:04.022Z,1.24
2017-05-29T13:17:32.979Z,0.92
2017-05-29T13:20:01.951Z,1.02
2017-05-29T13:22:31.193Z,1.78
2017-05-29T13:25:00.254Z,1.14
2017-05-29T13:27:29.235Z,1.10
2017-05-29T13:29:58.788Z,1.12
2017-05-29T13:32:26.996Z,1.24
2017-05-29T13:34:55.953Z,1.00
2017-05-29T13:37:25.256Z,0.92
2017-05-29T13:39:54.208Z,1.78
2017-05-29T13:42:23.174Z,1.54
2017-05-29T13:44:52.413Z,1.66
2017-05-29T13:47:21.377Z,1.48
2017-05-29T13:49:50.360Z,1.34
2017-05-29T13:52:19.563Z,1.26
2017-05-29T13:54:48.543Z,1.52
2017-05-29T13:57:17.515Z,1.34
2017-05-29T13:59:46.785Z,1.40
2017-05-29T14:02:15.752Z,1.30
2017-05-29T14:04:44.724Z,1.52
2017-05-29T14:07:13.948Z,1.40
2017-05-29T14:09:42.921Z,1.32
2017-05-29T14:12:11.889Z,1.74
2017-05-29T14:14:41.146Z,1.50
2017-05-29T14:17:09.326Z,1.50
2017-05-29T14:19:38.283Z,1.48
2017-05-29T14:22:07.602Z,1.44
2017-05-29T14:24:36.598Z,1.10
2017-05-29T14:27:05.561Z,1.10
2017-05-29T14:29:34.880Z,0.98
2017-05-29T14:32:03.846Z,1.16
2017-05-29T14:34:32.817Z,0.94
2017-05-29T14:37:02.033Z,1.14
2017-05-29T14:39:31.006Z,1.66
2017-05-29T14:41:59.982Z,0.94
2017-05-29T14:44:29.337Z,1.20
2017-05-29T14:46:58.318Z,1.06
2017-05-29T14:49:27.304Z,1.72
2017-05-29T14:51:56.615Z,1.08
2017-05-29T14:54:25.601Z,1.02
2017-05-29T14:56:54.587Z,1.24
2017-05-29T14:59:23.822Z,1.74
2017-05-29T15:01:52.786Z,2.20
2017-05-29T15:04:21.750Z,1.90
2017-05-29T15:06:50.986Z,1.62
2017-05-29T15:09:20.018Z,2.20
2017-05-29T15:11:48.988Z,1.50
2017-05-29T15:14:18.190Z,1.84
2017-05-29T15:16:47.221Z,2.30
2017-05-29T15:19:16.186Z,1.64
2017-05-29T15:21:45.405Z,2.02
2017-05-29T15:24:14.375Z,1.90
2017-05-29T15:26:43.338Z,1.46
2017-05-29T15:29:12.572Z,1.66
2017-05-29T15:31:41.523Z,1.60
2017-05-29T15:34:10.503Z,1.70
2017-05-29T15:36:39.740Z,2.36
2017-05-29T15:39:08.701Z,2.28
2017-05-29T15:41:37.687Z,2.32
2017-05-29T15:44:06.896Z,2.50
2017-05-29T15:46:35.850Z,2.80
2017-05-29T15:49:04.813Z,2.40
2017-05-29T15:51:34.147Z,2.04
2017-05-29T15:54:03.106Z,2.40
2017-05-29T15:56:32.081Z,8.32
2017-05-29T15:59:01.282Z,5.28
2017-05-29T16:01:30.284Z,1.98
2017-05-29T16:03:59.343Z,2.42
2017-05-29T16:06:28.704Z,2.34
2017-05-29T16:08:57.690Z,2.54
2017-05-29T16:11:26.644Z,3.64
2017-05-29T16:13:55.985Z,4.38
2017-05-29T16:16:24.954Z,2.38
2017-05-29T16:18:53.928Z,2.34
2017-05-29T16:21:23.262Z,2.00
2017-05-29T16:23:52.230Z,1.82
2017-05-29T16:26:21.192Z,3.26
2017-05-29T16:28:50.389Z,4.42
2017-05-29T16:31:19.370Z,4.40
2017-05-29T16:33:48.351Z,4.22
2017-05-29T16:36:17.614Z,1.86
2017-05-29T16:38:46.574Z,2.30
2017-05-29T16:41:15.570Z,2.30
2017-05-29T16:43:44.847Z,1.80
2017-05-29T16:46:13.849Z,1.80
2017-05-29T16:48:42.823Z,1.60
2017-05-29T16:51:12.092Z,1.42
2017-05-29T16:53:41.066Z,3.14
2017-05-29T16:56:10.070Z,3.38
2017-05-29T16:58:39.318Z,2.02
2017-05-29T17:01:08.289Z,3.36
2017-05-29T17:03:37.236Z,3.10
2017-05-29T17:06:06.459Z,1.50
2017-05-29T17:08:35.430Z,1.60
2017-05-29T17:11:04.409Z,1.88
2017-05-29T17:13:33.635Z,1.96
2017-05-29T17:16:02.497Z,1.52
2017-05-29T17:18:30.721Z,2.08
2017-05-29T17:20:59.692Z,1.52
2017-05-29T17:23:28.647Z,2.06
2017-05-29T17:25:57.647Z,1.86
2017-05-29T17:28:26.613Z,1.62
2017-05-29T17:30:55.611Z,1.90
2017-05-29T17:33:24.597Z,1.78
2017-05-29T17:35:53.601Z,2.92
2017-05-29T17:38:22.568Z,3.80
2017-05-29T17:40:51.598Z,2.16
2017-05-29T17:43:20.498Z,2.00
2017-05-29T17:45:49.598Z,1.82
2017-05-29T17:48:18.578Z,1.70
2017-05-29T17:50:47.567Z,1.82
2017-05-29T17:53:16.540Z,2.06
2017-05-29T17:55:45.558Z,1.86
2017-05-29T17:58:14.527Z,1.88
2017-05-29T18:00:43.515Z,2.22
2017-05-29T18:03:12.471Z,2.78
2017-05-29T18:05:41.473Z,2.32
2017-05-29T18:08:10.429Z,2.54
2017-05-29T18:10:39.412Z,2.26
2017-05-29T18:13:08.385Z,1.96
2017-05-29T18:15:37.371Z,2.30
2017-05-29T18:18:06.360Z,1.92
2017-05-29T18:20:35.351Z,2.10
2017-05-29T18:23:04.324Z,2.72
2017-05-29T18:25:33.296Z,2.52
2017-05-29T18:28:02.293Z,2.80
2017-05-29T18:30:31.294Z,2.64
2017-05-29T18:33:00.267Z,2.04
2017-05-29T18:35:29.266Z,2.52
2017-05-29T18:37:58.277Z,2.56
2017-05-29T18:40:27.268Z,2.06
2017-05-29T18:42:56.298Z,2.30
2017-05-29T18:45:25.303Z,2.14
2017-05-29T18:47:54.279Z,2.34
2017-05-29T18:50:23.272Z,2.90
2017-05-29T18:52:52.246Z,2.60
2017-05-29T18:55:21.233Z,2.48
2017-05-29T18:57:50.228Z,2.42
2017-05-29T19:00:19.212Z,2.28
2017-05-29T19:02:48.141Z,2.64
2017-05-29T19:05:17.138Z,2.52
2017-05-29T19:07:46.149Z,2.60
2017-05-29T19:10:15.164Z,2.30
2017-05-29T19:12:44.142Z,2.00
2017-05-29T19:15:13.138Z,2.94
2017-05-29T19:17:42.102Z,2.52
2017-05-29T19:20:11.356Z,1.98
2017-05-29T19:22:40.625Z,2.34
2017-05-29T19:25:09.667Z,3.02
2017-05-29T19:27:38.695Z,2.40
2017-05-29T19:30:07.686Z,2.80
2017-05-29T19:32:36.688Z,2.44
2017-05-29T19:35:05.683Z,2.76
2017-05-29T19:37:33.958Z,2.72
2017-05-29T19:40:02.937Z,2.80
2017-05-29T19:42:31.943Z,2.68
2017-05-29T19:45:00.935Z,2.94
2017-05-29T19:47:30.011Z,2.80
2017-05-29T19:49:59.019Z,3.26
2017-05-29T19:52:28.022Z,3.04
2017-05-29T19:54:57.017Z,3.58
2017-05-29T19:57:26.053Z,3.26
2017-05-29T19:59:55.107Z,2.40
2017-05-29T20:02:24.178Z,3.44
2017-05-29T20:04:53.153Z,2.64
2017-05-29T20:07:22.183Z,3.10
2017-05-29T20:09:51.191Z,2.92
2017-05-29T20:12:19.421Z,3.42
2017-05-29T20:14:48.408Z,3.50
2017-05-29T20:17:17.417Z,3.68
2017-05-29T20:19:46.371Z,3.10
2017-05-29T20:22:15.357Z,3.44
2017-05-29T20:24:44.335Z,2.84
2017-05-29T20:27:13.320Z,2.84
2017-05-29T20:29:42.303Z,2.92
2017-05-29T20:32:11.289Z,2.30
2017-05-29T20:34:40.278Z,3.06
2017-05-29T20:37:09.273Z,2.90
2017-05-29T20:39:38.231Z,3.16
2017-05-29T20:42:07.230Z,3.06
2017-05-29T20:44:36.222Z,2.92
2017-05-29T20:47:05.205Z,2.90
2017-05-29T20:49:34.174Z,3.62
2017-05-29T20:52:03.157Z,3.66
2017-05-29T20:54:31.346Z,3.22
2017-05-29T20:57:00.350Z,3.24
2017-05-29T20:59:29.354Z,2.62
2017-05-29T21:01:57.618Z,3.18
2017-05-29T21:04:26.630Z,3.44
2017-05-29T21:06:55.604Z,2.70
2017-05-29T21:09:24.602Z,3.62
2017-05-29T21:11:53.612Z,2.80
2017-05-29T21:14:22.589Z,3.32
2017-05-29T21:16:51.595Z,4.06
2017-05-29T21:19:20.562Z,2.98
2017-05-29T21:21:49.567Z,3.18
2017-05-29T21:24:18.602Z,3.58
2017-05-29T21:26:47.608Z,3.04
2017-05-29T21:29:16.579Z,2.92
2017-05-29T21:31:45.840Z,2.84
2017-05-29T21:34:14.843Z,2.82
2017-05-29T21:36:43.819Z,3.16
2017-05-29T21:39:12.789Z,3.14
2017-05-29T21:41:41.012Z,3.34
2017-05-29T21:44:09.998Z,3.22
2017-05-29T21:46:38.966Z,3.24
2017-05-29T21:49:07.941Z,3.40
2017-05-29T21:51:36.927Z,2.88
2017-05-29T21:54:05.886Z,3.10
2017-05-29T21:56:34.103Z,3.70
2017-05-29T21:59:03.123Z,3.44
2017-05-29T22:01:32.102Z,3.30
2017-05-29T22:04:01.111Z,3.90
2017-05-29T22:06:30.087Z,3.50
2017-05-29T22:08:59.068Z,3.70
2017-05-29T22:11:28.053Z,3.04
2017-05-29T22:13:57.047Z,3.92
2017-05-29T22:16:25.912Z,4.00
2017-05-29T22:18:54.963Z,3.90
2017-05-29T22:21:23.946Z,3.32
2017-05-29T22:23:52.936Z,3.44
2017-05-29T22:26:21.919Z,3.40
2017-05-29T22:28:50.913Z,3.28
2017-05-29T22:31:19.131Z,3.86
2017-05-29T22:33:48.139Z,4.22
2017-05-29T22:36:17.054Z,4.34
2017-05-29T22:38:46.093Z,3.50
2017-05-29T22:41:14.289Z,4.04
2017-05-29T22:43:42.517Z,3.86
2017-05-29T22:46:11.520Z,3.08
2017-05-29T22:48:40.143Z,4.56
2017-05-29T22:51:09.119Z,3.84
2017-05-29T22:53:38.089Z,5.18
2017-05-29T22:56:07.067Z,5.10
2017-05-29T22:58:36.068Z,4.44
2017-05-29T23:01:05.034Z,4.42
2017-05-29T23:03:34.063Z,3.74
2017-05-29T23:06:02.258Z,4.76
2017-05-29T23:08:31.237Z,4.64
2017-05-29T23:11:00.209Z,4.56
2017-05-29T23:13:28.454Z,4.50
2017-05-29T23:15:56.647Z,4.02
2017-05-29T23:18:25.640Z,3.92
2017-05-29T23:20:54.612Z,4.34
2017-05-29T23:23:26.063Z,4.62
2017-05-29T23:25:55.195Z,4.10
2017-05-29T23:28:23.421Z,4.02
2017-05-29T23:30:52.433Z,4.48
2017-05-29T23:33:21.486Z,4.58
2017-05-29T23:35:50.380Z,4.72
2017-05-29T23:38:19.782Z,4.08
2017-05-29T23:40:48.754Z,4.40
2017-05-29T23:43:17.725Z,4.54
2017-05-29T23:45:46.712Z,4.76
2017-05-29T23:48:15.680Z,5.56
2017-05-29T23:50:44.677Z,4.78
2017-05-29T23:53:13.653Z,5.40
2017-05-29T23:55:42.717Z,4.66
2017-05-29T23:58:10.924Z,5.26
